M/V Rhett Parker — WCX2909 — position and weather

sailwx.info

Track history (hours):
 
Tides and Currents Weather Stations Pressure Air Temp Water Temp Dewpoint Dewpoint Depression Visibility Wind Speed Wind Dir Waves Ship Positions

M/V Rhett Parker

Owner: Parker Towing Company, Inc., TUSCALOOSA, AL. More information available from US FCC via Universal Licensing System and Coast Guard Vessel Documentation Center.

Last reported at 2018-Jun-23 16:56 UTC. Time now 2018-Jul-23 15:33 UTC.
Position N 29°33' W 090°28'.
Warning: this ship's position is 29 days out of date.

Length 26 m; draft 2.7 m.

Type: . MMSI: 367136670.

Date/timePositionNaut miles runAvg speedWind from/ knotsBaromVisibWave heightAir tempDewpointWater temp
2018-Jun-23 16:56N 29°33' W 090°28'3 5.9
2018-Jun-23 16:29N 29°34' W 090°31'3 5.7
2018-Jun-23 16:00N 29°34' W 090°34'3 5.1
2018-Jun-23 15:30N 29°35' W 090°37'3 5.6
2018-Jun-23 15:00N 29°36' W 090°40'2 4.2
2018-Jun-23 14:30N 29°37' W 090°42'2 4.2
2018-Jun-23 14:00N 29°35' W 090°43'2 3.5
2018-Jun-23 13:31N 29°34' W 090°45'65 4.3
2018-Jun-22 22:12N 29°50' W 091°58'1 5.1
2018-Jun-22 21:58N 29°50' W 091°59'3 5.5
2018-Jun-22 21:30N 29°49' W 092°02'3 5.3
2018-Jun-22 21:00N 29°48' W 092°05'3 5.1
2018-Jun-22 20:30N 29°47' W 092°07'2 4.9
2018-Jun-22 20:00N 29°47' W 092°10'2 4.0
2018-Jun-22 19:30N 29°47' W 092°12'0 0.8
2018-Jun-22 19:00N 29°47' W 092°13'1 1.1
2018-Jun-22 18:31N 29°47' W 092°13'0 0.0
2018-Jun-22 17:58N 29°47' W 092°13'0 0.0
2018-Jun-22 17:28N 29°47' W 092°13'0 0.0
2018-Jun-22 17:00N 29°47' W 092°13'0 0.6
2018-Jun-22 16:30N 29°48' W 092°14'2 4.1
2018-Jun-22 16:01N 29°48' W 092°16'3 5.2
2018-Jun-22 15:30N 29°50' W 092°18'3 5.2
2018-Jun-22 14:59N 29°51' W 092°21'29 4.3
2018-Jun-22 08:22N 29°57' W 092°53'2 4.5
2018-Jun-22 07:55N 29°56' W 092°56'2 4.4
2018-Jun-22 07:26N 29°56' W 092°58'0 0.8
2018-Jun-22 06:59N 29°56' W 092°58'0 0.0
2018-Jun-22 06:22N 29°56' W 092°58'0 0.7
2018-Jun-22 06:00N 29°56' W 092°59'2 4.3
2018-Jun-22 05:27N 29°56' W 093°01'1 3.0
2018-Jun-22 05:00N 29°56' W 093°03'2 3.4
2018-Jun-22 04:28N 29°56' W 093°05'1 2.9
2018-Jun-22 04:01N 29°56' W 093°07'2 3.8
2018-Jun-22 03:30N 29°56' W 093°09'2 4.6
2018-Jun-22 03:00N 29°57' W 093°11'2 4.0
2018-Jun-22 02:30N 29°59' W 093°12'2 4.1
2018-Jun-22 02:00N 30°01' W 093°14'2 4.1
2018-Jun-22 01:30N 30°02' W 093°15'2 3.8
2018-Jun-22 01:00N 30°04' W 093°16'2 3.7
2018-Jun-22 00:30N 30°05' W 093°18'0 1.0
2018-Jun-22 00:00N 30°06' W 093°18'0 0.8
2018-Jun-21 23:29N 30°06' W 093°18'0 0.1
2018-Jun-21 22:59N 30°06' W 093°18'0 0.0
2018-Jun-21 22:29N 30°06' W 093°18'0 0.0
2018-Jun-21 21:59N 30°06' W 093°18'0 0.0
2018-Jun-21 21:29N 30°06' W 093°18'0 0.0
2018-Jun-21 20:59N 30°06' W 093°18'0 0.0
2018-Jun-21 20:29N 30°06' W 093°18'0 0.0
2018-Jun-21 19:59N 30°06' W 093°18'0 0.0
2018-Jun-21 19:29N 30°06' W 093°18'0 0.0
2018-Jun-21 18:59N 30°06' W 093°18'0 0.1
2018-Jun-21 18:29N 30°06' W 093°18'0 0.0
2018-Jun-21 17:59N 30°06' W 093°18'0 0.0
2018-Jun-21 17:29N 30°06' W 093°18'0 0.0
2018-Jun-21 16:59N 30°06' W 093°18'0 0.0
2018-Jun-21 16:29N 30°06' W 093°18'0 0.0
2018-Jun-21 15:59N 30°06' W 093°18'0 0.0
2018-Jun-21 15:29N 30°06' W 093°18'0 0.0
2018-Jun-21 14:59N 30°06' W 093°18'0 0.0
2018-Jun-21 14:29N 30°06' W 093°18'0 0.0
2018-Jun-21 13:59N 30°06' W 093°18'0 0.0
2018-Jun-21 13:30N 30°06' W 093°18'0 0.0
2018-Jun-21 13:01N 30°06' W 093°18'0 0.0
2018-Jun-21 12:30N 30°06' W 093°18'0 0.0
2018-Jun-21 12:00N 30°06' W 093°18'0 0.0
2018-Jun-21 11:30N 30°06' W 093°18'0 0.0
2018-Jun-21 11:01N 30°06' W 093°18'0 0.0
2018-Jun-21 10:30N 30°06' W 093°18'0 0.0
2018-Jun-21 10:00N 30°06' W 093°18'0 0.0
2018-Jun-21 09:31N 30°06' W 093°18'0 0.0
2018-Jun-21 09:01N 30°06' W 093°18'0 0.1
2018-Jun-21 08:31N 30°06' W 093°18'0 0.0
2018-Jun-21 08:01N 30°06' W 093°18'0 0.5
2018-Jun-21 07:30N 30°06' W 093°18'1 2.1
2018-Jun-21 07:01N 30°06' W 093°20'2 4.3
2018-Jun-21 06:30N 30°04' W 093°21'2 4.2
2018-Jun-21 06:00N 30°04' W 093°23'2 4.9
2018-Jun-21 05:30N 30°04' W 093°26'2 5.0
2018-Jun-21 05:01N 30°04' W 093°29'2 4.9
2018-Jun-21 04:30N 30°04' W 093°32'3 5.6
2018-Jun-21 04:00N 30°04' W 093°35'3 5.3
2018-Jun-21 03:30N 30°04' W 093°38'3 6.0
2018-Jun-21 03:00N 30°04' W 093°42'3 5.6
2018-Jun-21 02:31N 30°02' W 093°44'3 6.4
2018-Jun-21 02:01N 29°60' W 093°47'3 6.2
2018-Jun-21 01:30N 29°59' W 093°50'3 6.2
2018-Jun-21 01:00N 29°56' W 093°52'3 6.7
2018-Jun-21 00:31N 29°53' W 093°55'3 6.7
2018-Jun-21 00:01N 29°51' W 093°57'3 5.3
2018-Jun-20 23:31N 29°49' W 093°59'3 6.1
2018-Jun-20 23:00N 29°47' W 094°02'3 6.0
2018-Jun-20 22:30N 29°45' W 094°04'3 5.9
2018-Jun-20 22:00N 29°43' W 094°07'3 5.8
2018-Jun-20 21:30N 29°41' W 094°10'2 4.9
2018-Jun-20 21:00N 29°41' W 094°12'3 5.3
2018-Jun-20 20:30N 29°39' W 094°15'3 5.1
2018-Jun-20 20:00N 29°38' W 094°18'6 4.7
2018-Jun-20 18:48N 29°36' W 094°24'2 2.2
2018-Jun-20 17:59N 29°34' W 094°25'2 3.4
2018-Jun-20 17:30N 29°36' W 094°24'3 5.6
2018-Jun-20 17:00N 29°37' W 094°21'3 5.0
2018-Jun-20 16:29N 29°38' W 094°18'2 4.1
2018-Jun-20 16:01N 29°39' W 094°16'3 6.5
2018-Jun-20 15:31N 29°40' W 094°13'3 6.6
2018-Jun-20 15:00N 29°41' W 094°09'3 6.6
2018-Jun-20 14:31N 29°44' W 094°06'3 6.8
2018-Jun-20 14:01N 29°46' W 094°03'3 6.3
2018-Jun-20 13:30N 29°48' W 094°01'3 6.2
2018-Jun-20 13:01N 29°49' W 093°58'4 8.4
2018-Jun-20 12:31N 29°53' W 093°55'5 9.3
2018-Jun-20 12:01N 29°57' W 093°52'3 6.2
2018-Jun-20 11:31N 29°59' W 093°49'4 8.0
2018-Jun-20 11:00N 30°01' W 093°45'4 6.4
2018-Jun-20 10:27N 30°03' W 093°42'3 5.7
2018-Jun-20 09:59N 30°04' W 093°39'2 5.0
2018-Jun-20 09:29N 30°04' W 093°36'2 4.8
2018-Jun-20 08:59N 30°04' W 093°34'2 4.5
2018-Jun-20 08:31N 30°04' W 093°31'2 4.4
2018-Jun-20 08:00N 30°04' W 093°28'2 4.1
2018-Jun-20 07:30N 30°04' W 093°26'2 3.8
2018-Jun-20 07:01N 30°04' W 093°24'2 3.5
2018-Jun-20 06:31N 30°04' W 093°22'2 3.0
2018-Jun-20 06:01N 30°04' W 093°20'2 3.3
2018-Jun-20 05:30N 30°06' W 093°19'1 2.9
2018-Jun-20 05:00N 30°05' W 093°18'0 0.7
2018-Jun-20 04:30N 30°05' W 093°17'1 1.8
2018-Jun-20 04:01N 30°05' W 093°17'1 1.3
2018-Jun-20 03:30N 30°04' W 093°16'0 0.8
2018-Jun-20 03:00N 30°04' W 093°16'0 0.0
2018-Jun-20 02:30N 30°04' W 093°16'0 0.0
2018-Jun-20 02:00N 30°04' W 093°16'0 0.0
2018-Jun-20 01:30N 30°04' W 093°16'0 0.0
2018-Jun-20 01:00N 30°04' W 093°16'0 0.0
2018-Jun-20 00:30N 30°04' W 093°16'0 0.0
2018-Jun-20 00:00N 30°04' W 093°16'0 0.0
2018-Jun-19 23:30N 30°04' W 093°16'0 0.0
2018-Jun-19 23:00N 30°04' W 093°16'0 0.0
2018-Jun-19 22:30N 30°04' W 093°16'0 0.0
2018-Jun-19 22:00N 30°04' W 093°16'0 0.0
2018-Jun-19 21:30N 30°04' W 093°16'0 0.0
2018-Jun-19 21:00N 30°04' W 093°16'0 0.0
2018-Jun-19 20:30N 30°04' W 093°16'0 0.0
2018-Jun-19 20:00N 30°04' W 093°16'0 0.0
2018-Jun-19 19:30N 30°04' W 093°16'0 0.0
2018-Jun-19 18:57N 30°04' W 093°16'0 0.0
2018-Jun-19 18:30N 30°04' W 093°16'0 0.0
2018-Jun-19 18:00N 30°04' W 093°16'0 0.0
2018-Jun-19 17:30N 30°04' W 093°16'0 0.0
2018-Jun-19 17:00N 30°04' W 093°16'0 0.0
2018-Jun-19 16:30N 30°04' W 093°16'0 0.0
2018-Jun-19 16:00N 30°04' W 093°16'0 0.0
2018-Jun-19 15:30N 30°04' W 093°16'0 0.0
2018-Jun-19 15:00N 30°04' W 093°16'0 0.0
2018-Jun-19 14:30N 30°04' W 093°16'0 0.0
2018-Jun-19 14:00N 30°04' W 093°16'0 0.0
2018-Jun-19 13:30N 30°04' W 093°16'0 0.1
2018-Jun-19 13:00N 30°04' W 093°16'0 0.0
2018-Jun-19 12:30N 30°04' W 093°16'0 0.0
2018-Jun-19 12:00N 30°04' W 093°16'0 0.0
2018-Jun-19 11:30N 30°04' W 093°16'0 0.0
2018-Jun-19 11:00N 30°04' W 093°16'0 0.0
2018-Jun-19 10:30N 30°04' W 093°16'0 0.1
2018-Jun-19 10:00N 30°04' W 093°16'0 0.1
2018-Jun-19 09:29N 30°04' W 093°16'0 0.4
2018-Jun-19 09:00N 30°03' W 093°16'2 3.4
2018-Jun-19 08:30N 30°02' W 093°15'1 1.8
2018-Jun-19 08:01N 30°01' W 093°14'2 3.3
2018-Jun-19 07:29N 29°60' W 093°13'2 3.7
2018-Jun-19 07:00N 29°58' W 093°12'2 4.2
2018-Jun-19 06:30N 29°57' W 093°10'2 3.7
2018-Jun-19 06:00N 29°56' W 093°08'38 4.1
2018-Jun-18 20:45N 29°53' W 092°25'1 3.9
2018-Jun-18 20:30N 29°53' W 092°24'2 3.2
2018-Jun-18 19:59N 29°52' W 092°22'2 3.5
2018-Jun-18 19:30N 29°51' W 092°21'2 3.3
2018-Jun-18 19:00N 29°50' W 092°19'1 2.9
2018-Jun-18 18:30N 29°50' W 092°18'2 3.1
2018-Jun-18 18:00N 29°49' W 092°16'2 3.2
2018-Jun-18 17:31N 29°48' W 092°15'2 3.9
2018-Jun-18 17:00N 29°47' W 092°13'0 0.5
2018-Jun-18 16:31N 29°47' W 092°12'1 1.8
2018-Jun-18 16:00N 29°47' W 092°11'0 0.0
2018-Jun-18 15:30N 29°47' W 092°11'0 0.0
2018-Jun-18 15:00N 29°47' W 092°11'0 0.1
2018-Jun-18 14:30N 29°47' W 092°11'0 0.0
2018-Jun-18 14:00N 29°47' W 092°11'0 0.1
2018-Jun-18 13:30N 29°47' W 092°11'0 0.0
2018-Jun-18 13:00N 29°47' W 092°11'0 0.0
2018-Jun-18 12:30N 29°47' W 092°11'0 0.5
2018-Jun-18 12:00N 29°47' W 092°11'1 1.1
2018-Jun-18 11:30N 29°47' W 092°10'2 4.4
2018-Jun-18 11:01N 29°47' W 092°08'3 5.3
2018-Jun-18 10:30N 29°48' W 092°05'1 2.6
2018-Jun-18 10:00N 29°49' W 092°04'2 4.3
2018-Jun-18 09:30N 29°49' W 092°01'2 4.2
2018-Jun-18 09:00N 29°50' W 091°59'2 4.8
2018-Jun-18 08:30N 29°51' W 091°56'  
Track history (hours):
 
Tides and Currents Weather Stations Pressure Air Temp Water Temp Dewpoint Dewpoint Depression Visibility Wind Speed Wind Dir Waves Ship Positions

M/V Rhett Parker

Owner: Parker Towing Company, Inc., TUSCALOOSA, AL. More information available from US FCC via Universal Licensing System and Coast Guard Vessel Documentation Center.

Last reported at 2018-Jun-23 16:56 UTC. Time now 2018-Jul-23 15:33 UTC.
Position N 29°33' W 090°28'.
Warning: this ship's position is 29 days out of date.

Length 26 m; draft 2.7 m.

Type: . MMSI: 367136670.

Date/timePositionNaut miles runAvg speedWind from/ knotsBaromVisibWave heightAir tempDewpointWater temp
2018-Jun-23 16:56N 29°33' W 090°28'3 5.9
2018-Jun-23 16:29N 29°34' W 090°31'3 5.7
2018-Jun-23 16:00N 29°34' W 090°34'3 5.1
2018-Jun-23 15:30N 29°35' W 090°37'3 5.6
2018-Jun-23 15:00N 29°36' W 090°40'2 4.2
2018-Jun-23 14:30N 29°37' W 090°42'2 4.2
2018-Jun-23 14:00N 29°35' W 090°43'2 3.5
2018-Jun-23 13:31N 29°34' W 090°45'65 4.3
2018-Jun-22 22:12N 29°50' W 091°58'1 5.1
2018-Jun-22 21:58N 29°50' W 091°59'3 5.5
2018-Jun-22 21:30N 29°49' W 092°02'3 5.3
2018-Jun-22 21:00N 29°48' W 092°05'3 5.1
2018-Jun-22 20:30N 29°47' W 092°07'2 4.9
2018-Jun-22 20:00N 29°47' W 092°10'2 4.0
2018-Jun-22 19:30N 29°47' W 092°12'0 0.8
2018-Jun-22 19:00N 29°47' W 092°13'1 1.1
2018-Jun-22 18:31N 29°47' W 092°13'0 0.0
2018-Jun-22 17:58N 29°47' W 092°13'0 0.0
2018-Jun-22 17:28N 29°47' W 092°13'0 0.0
2018-Jun-22 17:00N 29°47' W 092°13'0 0.6
2018-Jun-22 16:30N 29°48' W 092°14'2 4.1
2018-Jun-22 16:01N 29°48' W 092°16'3 5.2
2018-Jun-22 15:30N 29°50' W 092°18'3 5.2
2018-Jun-22 14:59N 29°51' W 092°21'29 4.3
2018-Jun-22 08:22N 29°57' W 092°53'2 4.5
2018-Jun-22 07:55N 29°56' W 092°56'2 4.4
2018-Jun-22 07:26N 29°56' W 092°58'0 0.8
2018-Jun-22 06:59N 29°56' W 092°58'0 0.0
2018-Jun-22 06:22N 29°56' W 092°58'0 0.7
2018-Jun-22 06:00N 29°56' W 092°59'2 4.3
2018-Jun-22 05:27N 29°56' W 093°01'1 3.0
2018-Jun-22 05:00N 29°56' W 093°03'2 3.4
2018-Jun-22 04:28N 29°56' W 093°05'1 2.9
2018-Jun-22 04:01N 29°56' W 093°07'2 3.8
2018-Jun-22 03:30N 29°56' W 093°09'2 4.6
2018-Jun-22 03:00N 29°57' W 093°11'2 4.0
2018-Jun-22 02:30N 29°59' W 093°12'2 4.1
2018-Jun-22 02:00N 30°01' W 093°14'2 4.1
2018-Jun-22 01:30N 30°02' W 093°15'2 3.8
2018-Jun-22 01:00N 30°04' W 093°16'2 3.7
2018-Jun-22 00:30N 30°05' W 093°18'0 1.0
2018-Jun-22 00:00N 30°06' W 093°18'0 0.8
2018-Jun-21 23:29N 30°06' W 093°18'0 0.1
2018-Jun-21 22:59N 30°06' W 093°18'0 0.0
2018-Jun-21 22:29N 30°06' W 093°18'0 0.0
2018-Jun-21 21:59N 30°06' W 093°18'0 0.0
2018-Jun-21 21:29N 30°06' W 093°18'0 0.0
2018-Jun-21 20:59N 30°06' W 093°18'0 0.0
2018-Jun-21 20:29N 30°06' W 093°18'0 0.0
2018-Jun-21 19:59N 30°06' W 093°18'0 0.0
2018-Jun-21 19:29N 30°06' W 093°18'0 0.0
2018-Jun-21 18:59N 30°06' W 093°18'0 0.1
2018-Jun-21 18:29N 30°06' W 093°18'0 0.0
2018-Jun-21 17:59N 30°06' W 093°18'0 0.0
2018-Jun-21 17:29N 30°06' W 093°18'0 0.0
2018-Jun-21 16:59N 30°06' W 093°18'0 0.0
2018-Jun-21 16:29N 30°06' W 093°18'0 0.0
2018-Jun-21 15:59N 30°06' W 093°18'0 0.0
2018-Jun-21 15:29N 30°06' W 093°18'0 0.0
2018-Jun-21 14:59N 30°06' W 093°18'0 0.0
2018-Jun-21 14:29N 30°06' W 093°18'0 0.0
2018-Jun-21 13:59N 30°06' W 093°18'0 0.0
2018-Jun-21 13:30N 30°06' W 093°18'0 0.0
2018-Jun-21 13:01N 30°06' W 093°18'0 0.0
2018-Jun-21 12:30N 30°06' W 093°18'0 0.0
2018-Jun-21 12:00N 30°06' W 093°18'0 0.0
2018-Jun-21 11:30N 30°06' W 093°18'0 0.0
2018-Jun-21 11:01N 30°06' W 093°18'0 0.0
2018-Jun-21 10:30N 30°06' W 093°18'0 0.0
2018-Jun-21 10:00N 30°06' W 093°18'0 0.0
2018-Jun-21 09:31N 30°06' W 093°18'0 0.0
2018-Jun-21 09:01N 30°06' W 093°18'0 0.1
2018-Jun-21 08:31N 30°06' W 093°18'0 0.0
2018-Jun-21 08:01N 30°06' W 093°18'0 0.5
2018-Jun-21 07:30N 30°06' W 093°18'1 2.1
2018-Jun-21 07:01N 30°06' W 093°20'2 4.3
2018-Jun-21 06:30N 30°04' W 093°21'2 4.2
2018-Jun-21 06:00N 30°04' W 093°23'2 4.9
2018-Jun-21 05:30N 30°04' W 093°26'2 5.0
2018-Jun-21 05:01N 30°04' W 093°29'2 4.9
2018-Jun-21 04:30N 30°04' W 093°32'3 5.6
2018-Jun-21 04:00N 30°04' W 093°35'3 5.3
2018-Jun-21 03:30N 30°04' W 093°38'3 6.0
2018-Jun-21 03:00N 30°04' W 093°42'3 5.6
2018-Jun-21 02:31N 30°02' W 093°44'3 6.4
2018-Jun-21 02:01N 29°60' W 093°47'3 6.2
2018-Jun-21 01:30N 29°59' W 093°50'3 6.2
2018-Jun-21 01:00N 29°56' W 093°52'3 6.7
2018-Jun-21 00:31N 29°53' W 093°55'3 6.7
2018-Jun-21 00:01N 29°51' W 093°57'3 5.3
2018-Jun-20 23:31N 29°49' W 093°59'3 6.1
2018-Jun-20 23:00N 29°47' W 094°02'3 6.0
2018-Jun-20 22:30N 29°45' W 094°04'3 5.9
2018-Jun-20 22:00N 29°43' W 094°07'3 5.8
2018-Jun-20 21:30N 29°41' W 094°10'2 4.9
2018-Jun-20 21:00N 29°41' W 094°12'3 5.3
2018-Jun-20 20:30N 29°39' W 094°15'3 5.1
2018-Jun-20 20:00N 29°38' W 094°18'6 4.7
2018-Jun-20 18:48N 29°36' W 094°24'2 2.2
2018-Jun-20 17:59N 29°34' W 094°25'2 3.4
2018-Jun-20 17:30N 29°36' W 094°24'3 5.6
2018-Jun-20 17:00N 29°37' W 094°21'3 5.0
2018-Jun-20 16:29N 29°38' W 094°18'2 4.1
2018-Jun-20 16:01N 29°39' W 094°16'3 6.5
2018-Jun-20 15:31N 29°40' W 094°13'3 6.6
2018-Jun-20 15:00N 29°41' W 094°09'3 6.6
2018-Jun-20 14:31N 29°44' W 094°06'3 6.8
2018-Jun-20 14:01N 29°46' W 094°03'3 6.3
2018-Jun-20 13:30N 29°48' W 094°01'3 6.2
2018-Jun-20 13:01N 29°49' W 093°58'4 8.4
2018-Jun-20 12:31N 29°53' W 093°55'5 9.3
2018-Jun-20 12:01N 29°57' W 093°52'3 6.2
2018-Jun-20 11:31N 29°59' W 093°49'4 8.0
2018-Jun-20 11:00N 30°01' W 093°45'4 6.4
2018-Jun-20 10:27N 30°03' W 093°42'3 5.7
2018-Jun-20 09:59N 30°04' W 093°39'2 5.0
2018-Jun-20 09:29N 30°04' W 093°36'2 4.8
2018-Jun-20 08:59N 30°04' W 093°34'2 4.5
2018-Jun-20 08:31N 30°04' W 093°31'2 4.4
2018-Jun-20 08:00N 30°04' W 093°28'2 4.1
2018-Jun-20 07:30N 30°04' W 093°26'2 3.8
2018-Jun-20 07:01N 30°04' W 093°24'2 3.5
2018-Jun-20 06:31N 30°04' W 093°22'2 3.0
2018-Jun-20 06:01N 30°04' W 093°20'2 3.3
2018-Jun-20 05:30N 30°06' W 093°19'1 2.9
2018-Jun-20 05:00N 30°05' W 093°18'0 0.7
2018-Jun-20 04:30N 30°05' W 093°17'1 1.8
2018-Jun-20 04:01N 30°05' W 093°17'1 1.3
2018-Jun-20 03:30N 30°04' W 093°16'0 0.8
2018-Jun-20 03:00N 30°04' W 093°16'0 0.0
2018-Jun-20 02:30N 30°04' W 093°16'0 0.0
2018-Jun-20 02:00N 30°04' W 093°16'0 0.0
2018-Jun-20 01:30N 30°04' W 093°16'0 0.0
2018-Jun-20 01:00N 30°04' W 093°16'0 0.0
2018-Jun-20 00:30N 30°04' W 093°16'0 0.0
2018-Jun-20 00:00N 30°04' W 093°16'0 0.0
2018-Jun-19 23:30N 30°04' W 093°16'0 0.0
2018-Jun-19 23:00N 30°04' W 093°16'0 0.0
2018-Jun-19 22:30N 30°04' W 093°16'0 0.0
2018-Jun-19 22:00N 30°04' W 093°16'0 0.0
2018-Jun-19 21:30N 30°04' W 093°16'0 0.0
2018-Jun-19 21:00N 30°04' W 093°16'0 0.0
2018-Jun-19 20:30N 30°04' W 093°16'0 0.0
2018-Jun-19 20:00N 30°04' W 093°16'0 0.0
2018-Jun-19 19:30N 30°04' W 093°16'0 0.0
2018-Jun-19 18:57N 30°04' W 093°16'0 0.0
2018-Jun-19 18:30N 30°04' W 093°16'0 0.0
2018-Jun-19 18:00N 30°04' W 093°16'0 0.0
2018-Jun-19 17:30N 30°04' W 093°16'0 0.0
2018-Jun-19 17:00N 30°04' W 093°16'0 0.0
2018-Jun-19 16:30N 30°04' W 093°16'0 0.0
2018-Jun-19 16:00N 30°04' W 093°16'0 0.0
2018-Jun-19 15:30N 30°04' W 093°16'0 0.0
2018-Jun-19 15:00N 30°04' W 093°16'0 0.0
2018-Jun-19 14:30N 30°04' W 093°16'0 0.0
2018-Jun-19 14:00N 30°04' W 093°16'0 0.0
2018-Jun-19 13:30N 30°04' W 093°16'0 0.1
2018-Jun-19 13:00N 30°04' W 093°16'0 0.0
2018-Jun-19 12:30N 30°04' W 093°16'0 0.0
2018-Jun-19 12:00N 30°04' W 093°16'0 0.0
2018-Jun-19 11:30N 30°04' W 093°16'0 0.0
2018-Jun-19 11:00N 30°04' W 093°16'0 0.0
2018-Jun-19 10:30N 30°04' W 093°16'0 0.1
2018-Jun-19 10:00N 30°04' W 093°16'0 0.1
2018-Jun-19 09:29N 30°04' W 093°16'0 0.4
2018-Jun-19 09:00N 30°03' W 093°16'2 3.4
2018-Jun-19 08:30N 30°02' W 093°15'1 1.8
2018-Jun-19 08:01N 30°01' W 093°14'2 3.3
2018-Jun-19 07:29N 29°60' W 093°13'2 3.7
2018-Jun-19 07:00N 29°58' W 093°12'2 4.2
2018-Jun-19 06:30N 29°57' W 093°10'2 3.7
2018-Jun-19 06:00N 29°56' W 093°08'38 4.1
2018-Jun-18 20:45N 29°53' W 092°25'1 3.9
2018-Jun-18 20:30N 29°53' W 092°24'2 3.2
2018-Jun-18 19:59N 29°52' W 092°22'2 3.5
2018-Jun-18 19:30N 29°51' W 092°21'2 3.3
2018-Jun-18 19:00N 29°50' W 092°19'1 2.9
2018-Jun-18 18:30N 29°50' W 092°18'2 3.1
2018-Jun-18 18:00N 29°49' W 092°16'2 3.2
2018-Jun-18 17:31N 29°48' W 092°15'2 3.9
2018-Jun-18 17:00N 29°47' W 092°13'0 0.5
2018-Jun-18 16:31N 29°47' W 092°12'1 1.8
2018-Jun-18 16:00N 29°47' W 092°11'0 0.0
2018-Jun-18 15:30N 29°47' W 092°11'0 0.0
2018-Jun-18 15:00N 29°47' W 092°11'0 0.1
2018-Jun-18 14:30N 29°47' W 092°11'0 0.0
2018-Jun-18 14:00N 29°47' W 092°11'0 0.1
2018-Jun-18 13:30N 29°47' W 092°11'0 0.0
2018-Jun-18 13:00N 29°47' W 092°11'0 0.0
2018-Jun-18 12:30N 29°47' W 092°11'0 0.5
2018-Jun-18 12:00N 29°47' W 092°11'1 1.1
2018-Jun-18 11:30N 29°47' W 092°10'2 4.4
2018-Jun-18 11:01N 29°47' W 092°08'3 5.3
2018-Jun-18 10:30N 29°48' W 092°05'1 2.6
2018-Jun-18 10:00N 29°49' W 092°04'2 4.3
2018-Jun-18 09:30N 29°49' W 092°01'2 4.2
2018-Jun-18 09:00N 29°50' W 091°59'2 4.8
2018-Jun-18 08:30N 29°51' W 091°56'  

Dump ship's entire track history